createdAt,value
2022-07-30T00:01:13.978Z,39.87
2022-07-30T00:03:40.600Z,40.17
2022-07-30T00:06:07.117Z,39.99
2022-07-30T00:08:34.000Z,39.92
2022-07-30T00:11:00.531Z,40.27
2022-07-30T00:13:27.168Z,40.38
2022-07-30T00:15:53.654Z,40.18
2022-07-30T00:18:20.132Z,40.39
2022-07-30T00:20:48.875Z,40.38
2022-07-30T00:23:15.876Z,40.32
2022-07-30T00:25:42.356Z,40.24
2022-07-30T00:28:08.935Z,40.08
2022-07-30T00:30:35.761Z,40.48
2022-07-30T00:33:02.376Z,40.21
2022-07-30T00:35:29.131Z,40.13
2022-07-30T00:37:55.819Z,40.64
2022-07-30T00:40:22.546Z,40.58
2022-07-30T00:42:49.401Z,40.60
2022-07-30T00:45:17.803Z,40.55
2022-07-30T00:47:44.637Z,40.78
2022-07-30T00:50:13.807Z,40.48
2022-07-30T00:52:41.338Z,40.57
2022-07-30T00:55:13.983Z,40.87
2022-07-30T00:57:41.346Z,40.88
2022-07-30T01:00:11.416Z,41.11
2022-07-30T01:02:38.387Z,41.03
2022-07-30T01:05:05.956Z,41.14
2022-07-30T01:07:32.676Z,41.10
2022-07-30T01:09:59.270Z,41.45
2022-07-30T01:12:27.263Z,41.13
2022-07-30T01:14:56.146Z,41.64
2022-07-30T01:17:22.778Z,41.27
2022-07-30T01:19:52.544Z,41.35
2022-07-30T01:22:31.013Z,41.83
2022-07-30T01:25:03.941Z,42.01
2022-07-30T01:27:35.288Z,41.87
2022-07-30T01:30:04.340Z,41.80
2022-07-30T01:32:31.748Z,41.67
2022-07-30T01:35:00.933Z,41.77
2022-07-30T01:37:29.187Z,41.86
2022-07-30T01:39:56.590Z,41.61
2022-07-30T01:42:25.172Z,41.78
2022-07-30T01:44:51.629Z,41.39
2022-07-30T01:47:20.720Z,41.45
2022-07-30T01:49:50.588Z,41.88
2022-07-30T01:52:18.732Z,41.86
2022-07-30T01:54:48.665Z,42.09
2022-07-30T01:57:18.580Z,42.14
2022-07-30T01:59:49.251Z,42.47
2022-07-30T02:02:17.943Z,42.44
2022-07-30T02:04:44.877Z,42.55
2022-07-30T02:07:18.486Z,43.03
2022-07-30T02:09:59.693Z,43.10
2022-07-30T02:12:30.038Z,42.54
2022-07-30T02:15:10.445Z,43.13
2022-07-30T02:17:54.818Z,43.33
2022-07-30T02:20:25.045Z,42.68
2022-07-30T02:22:57.082Z,43.23
2022-07-30T02:25:24.087Z,43.03
2022-07-30T02:27:56.029Z,43.41
2022-07-30T02:30:27.029Z,43.27
2022-07-30T02:32:59.526Z,43.10
2022-07-30T02:35:29.300Z,43.08
2022-07-30T02:37:57.811Z,43.17
2022-07-30T02:40:25.109Z,42.83
2022-07-30T02:42:53.132Z,42.82
2022-07-30T02:45:21.056Z,42.79
2022-07-30T02:47:52.439Z,43.23
2022-07-30T02:50:20.367Z,43.00
2022-07-30T02:52:48.435Z,43.24
2022-07-30T02:55:17.532Z,43.29
2022-07-30T02:57:46.029Z,43.08
2022-07-30T03:00:13.537Z,43.64
2022-07-30T03:02:42.862Z,43.45
2022-07-30T03:05:11.856Z,43.14
2022-07-30T03:07:40.411Z,43.63
2022-07-30T03:10:07.573Z,43.27
2022-07-30T03:12:36.212Z,43.47
2022-07-30T03:15:02.819Z,43.08
2022-07-30T03:17:37.345Z,43.68
2022-07-30T03:20:07.973Z,43.44
2022-07-30T03:22:41.443Z,43.82
2022-07-30T03:25:09.807Z,43.64
2022-07-30T03:27:38.226Z,43.50
2022-07-30T03:30:05.999Z,43.88
2022-07-30T03:32:34.330Z,43.83
2022-07-30T03:35:06.170Z,44.04
2022-07-30T03:37:36.899Z,44.22
2022-07-30T03:40:05.834Z,44.17
2022-07-30T03:42:33.794Z,44.40
2022-07-30T03:45:06.964Z,44.82
2022-07-30T03:47:36.563Z,44.49
2022-07-30T03:50:04.224Z,44.86
2022-07-30T03:52:34.566Z,44.89
2022-07-30T03:55:03.769Z,44.58
2022-07-30T03:57:30.523Z,44.56
2022-07-30T03:59:57.139Z,44.81
2022-07-30T04:02:23.668Z,44.77
2022-07-30T04:04:50.308Z,44.70
2022-07-30T04:07:17.157Z,44.95
2022-07-30T04:09:43.790Z,44.91
2022-07-30T04:12:10.389Z,44.65
2022-07-30T04:14:45.046Z,45.20
2022-07-30T04:17:24.606Z,45.45
2022-07-30T04:19:54.975Z,44.81
2022-07-30T04:22:27.379Z,45.04
2022-07-30T04:24:54.874Z,44.75
2022-07-30T04:27:21.823Z,44.63
2022-07-30T04:29:48.375Z,44.85
2022-07-30T04:32:14.956Z,44.84
2022-07-30T04:34:52.629Z,45.35
2022-07-30T04:37:22.093Z,44.98
2022-07-30T04:39:54.175Z,44.76
2022-07-30T04:42:21.361Z,45.07
2022-07-30T04:44:48.275Z,44.96
2022-07-30T04:47:14.773Z,45.04
2022-07-30T04:49:42.122Z,45.06
2022-07-30T04:52:10.530Z,45.04
2022-07-30T04:54:52.938Z,44.93
2022-07-30T04:57:20.590Z,44.71
2022-07-30T04:59:47.248Z,44.89
2022-07-30T05:02:16.101Z,45.24
2022-07-30T05:04:42.939Z,44.87
2022-07-30T05:07:13.958Z,45.65
2022-07-30T05:09:42.983Z,45.26
2022-07-30T05:12:10.283Z,45.14
2022-07-30T05:14:36.811Z,45.19
2022-07-30T05:17:04.068Z,45.52
2022-07-30T05:19:31.018Z,45.71
2022-07-30T05:21:57.519Z,45.63
2022-07-30T05:24:24.156Z,45.15
2022-07-30T05:26:50.762Z,45.46
2022-07-30T05:29:19.962Z,45.62
2022-07-30T05:31:47.506Z,45.65
2022-07-30T05:34:13.997Z,45.81
2022-07-30T05:36:40.630Z,45.88
2022-07-30T05:39:07.157Z,45.92
2022-07-30T05:41:33.766Z,45.95
2022-07-30T05:44:00.848Z,46.11
2022-07-30T05:46:28.048Z,46.20
2022-07-30T05:48:54.690Z,46.10
2022-07-30T05:51:22.185Z,46.11
2022-07-30T05:53:48.836Z,46.30
2022-07-30T05:56:15.338Z,46.09
2022-07-30T05:58:41.857Z,45.67
2022-07-30T06:01:08.531Z,45.97
2022-07-30T06:03:35.242Z,45.92
2022-07-30T06:06:05.318Z,46.04
2022-07-30T06:08:32.193Z,46.31
2022-07-30T06:10:58.888Z,46.36
2022-07-30T06:13:25.457Z,46.37
2022-07-30T06:15:52.095Z,46.38
2022-07-30T06:18:18.666Z,46.43
2022-07-30T06:20:45.850Z,46.25
2022-07-30T06:23:12.833Z,46.47
2022-07-30T06:25:39.903Z,46.52
2022-07-30T06:28:34.840Z,46.62
2022-07-30T06:30:53.991Z,46.36
2022-07-30T06:33:20.562Z,46.69
2022-07-30T06:35:47.491Z,46.44
2022-07-30T06:38:14.008Z,46.87
2022-07-30T06:40:40.602Z,46.21
2022-07-30T06:43:07.130Z,45.93
2022-07-30T06:45:33.761Z,46.11
2022-07-30T06:48:00.625Z,45.83
2022-07-30T06:50:27.326Z,45.74
2022-07-30T06:52:55.167Z,45.84
2022-07-30T06:55:21.720Z,45.20
2022-07-30T06:57:48.417Z,45.76
2022-07-30T07:00:15.625Z,45.38
2022-07-30T07:02:42.780Z,45.53
2022-07-30T07:05:09.705Z,45.07
2022-07-30T07:07:42.045Z,44.87
2022-07-30T07:10:10.515Z,44.68
2022-07-30T07:12:37.021Z,44.76
2022-07-30T07:15:03.835Z,44.55
2022-07-30T07:17:30.315Z,44.52
2022-07-30T07:20:01.784Z,44.57
2022-07-30T07:22:29.460Z,44.62
2022-07-30T07:24:56.110Z,44.14
2022-07-30T07:27:22.634Z,44.04
2022-07-30T07:30:01.003Z,43.89
2022-07-30T07:32:30.806Z,44.39
2022-07-30T07:34:57.309Z,44.91
2022-07-30T07:37:23.812Z,45.19
2022-07-30T07:39:50.325Z,45.38
2022-07-30T07:42:16.817Z,44.90
2022-07-30T07:44:43.484Z,44.58
2022-07-30T07:47:09.962Z,43.83
2022-07-30T07:49:36.466Z,42.59
2022-07-30T07:52:03.401Z,41.94
2022-07-30T07:54:29.933Z,41.65
2022-07-30T07:56:56.693Z,41.59
2022-07-30T07:59:27.781Z,41.05
2022-07-30T08:02:08.152Z,40.37
2022-07-30T08:04:35.356Z,39.56
2022-07-30T08:07:02.330Z,39.17
2022-07-30T08:09:43.995Z,38.50
2022-07-30T08:12:14.486Z,37.25
2022-07-30T08:14:41.188Z,37.20
2022-07-30T08:17:08.613Z,36.82
2022-07-30T08:19:35.603Z,36.39
2022-07-30T08:22:02.095Z,35.97
2022-07-30T08:24:28.583Z,35.09
2022-07-30T08:26:55.156Z,34.88
2022-07-30T08:29:21.688Z,34.59
2022-07-30T08:31:48.362Z,34.44
2022-07-30T08:34:15.195Z,34.49
2022-07-30T08:36:42.119Z,34.39
2022-07-30T08:39:08.984Z,34.21
2022-07-30T08:41:38.733Z,33.65
2022-07-30T08:44:12.577Z,33.76
2022-07-30T08:46:47.684Z,33.38
2022-07-30T08:49:14.830Z,33.66
2022-07-30T08:51:42.105Z,33.48
2022-07-30T08:54:08.943Z,33.46
2022-07-30T08:56:35.535Z,33.25
2022-07-30T08:59:02.648Z,33.38
2022-07-30T09:01:29.409Z,32.90
2022-07-30T09:03:55.998Z,32.75
2022-07-30T09:06:22.685Z,32.66
2022-07-30T09:08:49.300Z,32.43
2022-07-30T09:11:15.875Z,32.27
2022-07-30T09:13:42.989Z,32.37
2022-07-30T09:16:27.509Z,33.33
2022-07-30T09:18:54.834Z,33.22
2022-07-30T09:21:26.619Z,33.33
2022-07-30T09:24:10.574Z,33.66
2022-07-30T09:27:03.118Z,33.52
2022-07-30T09:29:31.065Z,34.22
2022-07-30T09:32:03.940Z,34.28
2022-07-30T09:34:32.926Z,34.27
2022-07-30T09:37:20.814Z,34.41
2022-07-30T09:39:58.759Z,34.93
2022-07-30T09:42:28.781Z,34.52
2022-07-30T09:45:08.516Z,34.57
2022-07-30T09:47:37.395Z,34.41
2022-07-30T09:50:29.221Z,34.24
2022-07-30T09:53:06.766Z,34.61
2022-07-30T09:55:35.509Z,34.32
2022-07-30T09:58:04.145Z,34.92
2022-07-30T10:00:33.192Z,33.62
2022-07-30T10:03:00.673Z,34.27
2022-07-30T10:05:39.537Z,34.18
2022-07-30T10:08:09.321Z,34.38
2022-07-30T10:10:47.245Z,33.63
2022-07-30T10:13:20.847Z,33.40
2022-07-30T10:15:49.622Z,33.62
2022-07-30T10:18:17.670Z,33.66
2022-07-30T10:20:45.129Z,33.40
2022-07-30T10:23:15.665Z,33.26
2022-07-30T10:25:49.083Z,33.46
2022-07-30T10:28:22.805Z,33.10
2022-07-30T10:30:52.169Z,32.81
2022-07-30T10:33:36.500Z,32.08
2022-07-30T10:36:10.387Z,31.74
2022-07-30T10:38:41.351Z,31.76
2022-07-30T10:41:43.210Z,31.83
2022-07-30T10:44:29.034Z,31.34
2022-07-30T10:47:07.598Z,30.89
2022-07-30T10:49:40.996Z,30.76
2022-07-30T10:52:08.312Z,31.08
2022-07-30T10:54:39.301Z,30.74
2022-07-30T10:57:26.637Z,33.09
2022-07-30T11:00:04.271Z,32.02
2022-07-30T11:02:35.772Z,32.28
2022-07-30T11:05:18.026Z,32.79
2022-07-30T11:07:47.723Z,32.61
2022-07-30T11:10:34.229Z,32.41
2022-07-30T11:13:01.424Z,33.20
2022-07-30T11:15:59.714Z,33.29
2022-07-30T11:18:28.875Z,33.40
2022-07-30T11:21:20.749Z,34.10
2022-07-30T11:23:48.172Z,33.38
2022-07-30T11:26:38.641Z,33.74
2022-07-30T11:29:32.999Z,33.65
2022-07-30T11:32:31.937Z,32.52
2022-07-30T11:35:32.344Z,32.92
2022-07-30T11:38:08.790Z,32.66
2022-07-30T11:40:59.118Z,32.21
2022-07-30T11:43:34.823Z,31.36
2022-07-30T11:46:17.999Z,31.81
2022-07-30T11:48:57.587Z,31.52
2022-07-30T11:51:24.653Z,31.93
2022-07-30T11:54:08.591Z,31.65
2022-07-30T11:56:35.125Z,31.06
2022-07-30T11:59:07.280Z,30.88
2022-07-30T12:01:35.266Z,31.10
2022-07-30T12:04:06.195Z,30.77
2022-07-30T12:06:33.545Z,31.30
2022-07-30T12:09:00.112Z,30.67
2022-07-30T12:11:34.203Z,31.01
2022-07-30T12:14:02.134Z,31.09
2022-07-30T12:16:30.973Z,30.47
2022-07-30T12:19:05.457Z,30.22
2022-07-30T12:21:32.387Z,30.37
2022-07-30T12:24:01.679Z,30.33
2022-07-30T12:26:34.345Z,29.95
2022-07-30T12:29:06.619Z,29.62
2022-07-30T12:31:33.826Z,29.80
2022-07-30T12:34:00.823Z,29.93
2022-07-30T12:36:31.479Z,30.08
2022-07-30T12:38:58.902Z,30.04
2022-07-30T12:41:46.178Z,30.23
2022-07-30T12:44:42.021Z,30.09
2022-07-30T12:47:28.685Z,29.36
2022-07-30T12:49:57.635Z,28.96
2022-07-30T12:52:31.751Z,28.99
2022-07-30T12:55:09.334Z,28.95
2022-07-30T12:57:56.009Z,29.06
2022-07-30T13:00:27.314Z,29.18
2022-07-30T13:02:54.163Z,28.44
2022-07-30T13:05:20.881Z,28.39
2022-07-30T13:08:00.396Z,27.78
2022-07-30T13:10:31.250Z,28.27
2022-07-30T13:12:58.937Z,27.73
2022-07-30T13:15:26.417Z,27.98
2022-07-30T13:17:52.973Z,27.60
2022-07-30T13:20:19.633Z,28.52
2022-07-30T13:22:46.289Z,28.32
2022-07-30T13:25:13.119Z,28.37
2022-07-30T13:27:40.103Z,27.51
2022-07-30T13:30:07.336Z,27.26
2022-07-30T13:32:34.055Z,27.05
2022-07-30T13:35:01.765Z,26.59
2022-07-30T13:37:37.843Z,26.33
2022-07-30T13:40:06.770Z,26.28
2022-07-30T13:42:33.595Z,26.70
2022-07-30T13:45:00.148Z,26.57
2022-07-30T13:47:26.678Z,26.23
2022-07-30T13:49:53.362Z,26.31
2022-07-30T13:52:19.886Z,26.26
2022-07-30T13:54:46.426Z,26.07
2022-07-30T13:57:12.948Z,25.70
2022-07-30T13:59:39.457Z,25.30
2022-07-30T14:02:06.091Z,25.24
2022-07-30T14:04:32.605Z,25.45
2022-07-30T14:06:59.296Z,25.17
2022-07-30T14:09:25.936Z,25.13
2022-07-30T14:11:53.793Z,25.09
2022-07-30T14:14:22.397Z,25.19
2022-07-30T14:16:53.732Z,24.44
2022-07-30T14:19:23.286Z,24.34
2022-07-30T14:21:52.553Z,24.49
2022-07-30T14:24:19.003Z,25.76
2022-07-30T14:26:45.532Z,24.61
2022-07-30T14:29:12.178Z,24.73
2022-07-30T14:31:40.428Z,24.58
2022-07-30T14:34:07.074Z,24.77
2022-07-30T14:36:34.013Z,24.87
2022-07-30T14:39:03.973Z,25.10
2022-07-30T14:41:31.609Z,24.96
2022-07-30T14:43:58.208Z,25.07
2022-07-30T14:46:24.732Z,24.68
2022-07-30T14:48:51.291Z,24.95
2022-07-30T14:51:22.962Z,24.68
2022-07-30T14:53:52.132Z,24.81
2022-07-30T14:56:19.435Z,24.34
2022-07-30T14:58:46.303Z,24.48
2022-07-30T15:01:15.828Z,23.85
2022-07-30T15:03:43.724Z,24.08
2022-07-30T15:06:12.575Z,24.12
2022-07-30T15:08:39.263Z,23.66
2022-07-30T15:11:06.169Z,23.30
2022-07-30T15:13:35.131Z,23.29
2022-07-30T15:16:03.169Z,23.87
2022-07-30T15:18:29.667Z,23.71
2022-07-30T15:20:56.391Z,24.21
2022-07-30T15:23:22.948Z,24.51
2022-07-30T15:25:49.549Z,24.59
2022-07-30T15:28:16.152Z,24.58
2022-07-30T15:30:42.755Z,24.42
2022-07-30T15:33:09.347Z,24.19
2022-07-30T15:35:37.391Z,24.30
2022-07-30T15:38:04.204Z,24.53
2022-07-30T15:40:30.854Z,24.94
2022-07-30T15:42:57.423Z,24.57
2022-07-30T15:45:24.994Z,24.78
2022-07-30T15:47:51.780Z,24.71
2022-07-30T15:50:18.388Z,24.43
2022-07-30T15:52:45.348Z,24.46
2022-07-30T15:55:12.281Z,24.57
2022-07-30T15:57:40.536Z,24.69
2022-07-30T16:00:08.653Z,24.95
2022-07-30T16:02:36.199Z,25.10
2022-07-30T16:05:04.087Z,24.83
2022-07-30T16:07:30.771Z,24.53
2022-07-30T16:09:57.342Z,24.83
2022-07-30T16:12:24.976Z,24.26
2022-07-30T16:14:52.025Z,24.24
2022-07-30T16:17:18.706Z,24.17
2022-07-30T16:19:46.241Z,23.97
2022-07-30T16:22:14.940Z,24.06
2022-07-30T16:24:48.791Z,23.97
2022-07-30T16:27:16.705Z,24.18
2022-07-30T16:29:43.211Z,23.93
2022-07-30T16:32:09.802Z,23.88
2022-07-30T16:34:36.335Z,23.70
2022-07-30T16:37:04.069Z,24.02
2022-07-30T16:39:31.064Z,24.10
2022-07-30T16:41:57.621Z,23.94
2022-07-30T16:44:24.107Z,23.60
2022-07-30T16:46:50.588Z,23.17
2022-07-30T16:49:17.147Z,22.99
2022-07-30T16:51:44.021Z,22.97
2022-07-30T16:54:11.598Z,22.99
2022-07-30T16:56:38.102Z,23.37
2022-07-30T16:59:04.658Z,22.96
2022-07-30T17:01:32.174Z,22.78
2022-07-30T17:03:58.890Z,23.10
2022-07-30T17:06:25.592Z,23.30
2022-07-30T17:08:52.123Z,23.50
2022-07-30T17:11:46.659Z,23.34
2022-07-30T17:14:05.979Z,23.52
2022-07-30T17:16:32.649Z,23.72
2022-07-30T17:18:59.235Z,23.89
2022-07-30T17:21:25.746Z,24.18
2022-07-30T17:23:52.429Z,24.21
2022-07-30T17:26:18.939Z,24.55
2022-07-30T17:28:45.450Z,24.45
2022-07-30T17:31:12.583Z,24.78
2022-07-30T17:33:39.178Z,24.76
2022-07-30T17:36:08.402Z,24.67
2022-07-30T17:38:35.604Z,24.47
2022-07-30T17:41:02.573Z,24.71
2022-07-30T17:43:29.136Z,24.42
2022-07-30T17:45:55.664Z,24.89
2022-07-30T17:48:22.192Z,24.31
2022-07-30T17:50:48.719Z,24.59
2022-07-30T17:53:15.269Z,24.61
2022-07-30T17:55:41.956Z,24.50
2022-07-30T17:58:24.461Z,24.98
2022-07-30T18:00:50.994Z,24.46
2022-07-30T18:03:17.570Z,24.57
2022-07-30T18:05:44.356Z,24.69
2022-07-30T18:08:10.982Z,25.02
2022-07-30T18:10:37.543Z,24.85
2022-07-30T18:13:16.641Z,25.06
2022-07-30T18:15:50.557Z,24.97
2022-07-30T18:18:17.055Z,24.92
2022-07-30T18:20:47.973Z,24.99
2022-07-30T18:23:18.927Z,25.01
2022-07-30T18:25:52.005Z,25.08
2022-07-30T18:28:21.258Z,25.48
2022-07-30T18:30:48.040Z,25.57
2022-07-30T18:33:16.051Z,25.42
2022-07-30T18:35:45.177Z,25.17
2022-07-30T18:38:11.678Z,25.15
2022-07-30T18:40:38.274Z,25.28
2022-07-30T18:43:04.831Z,25.48
2022-07-30T18:45:36.648Z,25.04
2022-07-30T18:48:03.690Z,25.55
2022-07-30T18:50:30.679Z,25.28
2022-07-30T18:52:57.200Z,25.36
2022-07-30T18:55:23.764Z,25.88
2022-07-30T18:57:52.310Z,25.67
2022-07-30T19:00:34.463Z,25.75
2022-07-30T19:03:02.346Z,25.24
2022-07-30T19:05:29.234Z,25.61
2022-07-30T19:07:58.048Z,25.73
2022-07-30T19:10:26.197Z,25.57
2022-07-30T19:12:54.181Z,25.65
2022-07-30T19:15:20.999Z,25.73
2022-07-30T19:17:48.957Z,25.67
2022-07-30T19:20:15.728Z,26.02
2022-07-30T19:22:42.359Z,26.19
2022-07-30T19:25:09.883Z,25.75
2022-07-30T19:27:36.568Z,25.97
2022-07-30T19:30:04.917Z,26.23
2022-07-30T19:32:31.479Z,26.21
2022-07-30T19:34:57.988Z,26.15
2022-07-30T19:37:24.494Z,26.23
2022-07-30T19:40:05.274Z,26.28
2022-07-30T19:42:33.968Z,26.64
2022-07-30T19:45:01.347Z,26.19
2022-07-30T19:47:39.401Z,26.63
2022-07-30T19:50:07.619Z,26.57
2022-07-30T19:52:36.036Z,26.66
2022-07-30T19:55:03.861Z,26.82
2022-07-30T19:57:52.956Z,26.53
2022-07-30T20:00:24.827Z,26.60
2022-07-30T20:02:52.381Z,26.67
2022-07-30T20:05:19.629Z,27.08
2022-07-30T20:07:47.128Z,27.25
2022-07-30T20:10:15.904Z,26.96
2022-07-30T20:12:49.220Z,27.04
2022-07-30T20:15:16.544Z,27.19
2022-07-30T20:17:46.300Z,27.39
2022-07-30T20:20:13.711Z,27.37
2022-07-30T20:22:40.840Z,27.63
2022-07-30T20:25:08.735Z,28.06
2022-07-30T20:27:35.955Z,27.77
2022-07-30T20:30:04.599Z,27.83
2022-07-30T20:32:31.133Z,28.19
2022-07-30T20:34:58.547Z,28.01
2022-07-30T20:37:27.417Z,27.96
2022-07-30T20:39:55.595Z,28.20
2022-07-30T20:42:23.866Z,28.44
2022-07-30T20:44:53.283Z,28.12
2022-07-30T20:47:34.232Z,28.05
2022-07-30T20:50:06.141Z,28.27
2022-07-30T20:52:36.416Z,28.29
2022-07-30T20:55:03.124Z,28.54
2022-07-30T20:57:51.444Z,28.61
2022-07-30T21:00:18.712Z,28.63
2022-07-30T21:02:46.751Z,28.44
2022-07-30T21:05:20.086Z,28.55
2022-07-30T21:07:47.172Z,28.49
2022-07-30T21:10:14.697Z,28.55
2022-07-30T21:12:44.742Z,28.75
2022-07-30T21:18:04.272Z,28.88
2022-07-30T21:20:31.545Z,29.08
2022-07-30T21:23:06.176Z,29.32
2022-07-30T21:26:00.558Z,29.47
2022-07-30T21:28:27.532Z,29.35
2022-07-30T21:30:54.535Z,29.34
2022-07-30T21:33:24.072Z,29.66
2022-07-30T21:35:57.438Z,29.44
2022-07-30T21:38:26.451Z,29.66
2022-07-30T21:40:53.618Z,29.60
2022-07-30T21:43:22.912Z,29.76
2022-07-30T21:45:56.531Z,30.32
2022-07-30T21:48:24.329Z,30.04
2022-07-30T21:50:50.875Z,29.78
2022-07-30T21:53:17.516Z,29.96
2022-07-30T21:55:56.669Z,29.81
2022-07-30T21:58:26.100Z,30.47
2022-07-30T22:00:54.995Z,30.38
2022-07-30T22:04:03.493Z,29.92
2022-07-30T22:06:08.253Z,29.85
2022-07-30T22:08:39.740Z,29.85
2022-07-30T22:11:08.942Z,30.20
2022-07-30T22:13:36.351Z,30.18
2022-07-30T22:16:21.396Z,30.31
2022-07-30T22:18:47.950Z,30.37
2022-07-30T22:21:14.662Z,30.34
2022-07-30T22:23:41.183Z,30.68
2022-07-30T22:26:26.571Z,30.37
2022-07-30T22:28:54.330Z,30.44
2022-07-30T22:31:21.280Z,30.73
2022-07-30T22:33:49.810Z,30.38
2022-07-30T22:36:17.897Z,30.70
2022-07-30T22:38:58.489Z,30.52
2022-07-30T22:41:25.991Z,31.07
2022-07-30T22:43:55.729Z,30.71
2022-07-30T22:46:30.063Z,30.82
2022-07-30T22:48:57.257Z,30.94
2022-07-30T22:51:25.590Z,30.72
2022-07-30T22:54:13.020Z,31.17
2022-07-30T22:56:40.494Z,31.14
2022-07-30T22:59:07.036Z,31.30
2022-07-30T23:01:33.638Z,31.54
2022-07-30T23:04:01.374Z,31.54
2022-07-30T23:06:28.152Z,31.67
2022-07-30T23:08:56.547Z,31.03
2022-07-30T23:11:23.110Z,31.19
2022-07-30T23:12:26.971Z,28.88
2022-07-30T23:13:49.683Z,31.44
2022-07-30T23:16:16.199Z,31.82
2022-07-30T23:18:42.690Z,31.97
2022-07-30T23:21:09.913Z,32.02
2022-07-30T23:23:36.475Z,32.07
2022-07-30T23:26:04.896Z,32.20
2022-07-30T23:28:31.540Z,32.18
2022-07-30T23:30:58.030Z,32.20
2022-07-30T23:33:24.563Z,31.85
2022-07-30T23:35:51.100Z,32.09
2022-07-30T23:38:17.635Z,32.54
2022-07-30T23:40:44.462Z,32.55
2022-07-30T23:43:10.952Z,32.27
2022-07-30T23:45:37.426Z,32.11
2022-07-30T23:48:04.235Z,32.32
2022-07-30T23:50:32.269Z,32.51
2022-07-30T23:52:59.275Z,32.51
2022-07-30T23:55:27.076Z,32.33
2022-07-30T23:57:53.709Z,32.26
